Time;durP1;ratioP1;P1;durP2;ratioP2;P2;SDS_P1;SDS_P2;PMS_P1;PMS_P2;Temp;Humidity;BMP_temperature;BMP_pressure;BME280_temperature;BME280_humidity;BME280_pressure;Samples;Min_cycle;Max_cycle;Signal;HPM_P1;HPM_P2
2023/03/13 00:00:34;;;;;;;22.02;11.85;;;;;;;;;;4995709;28;20054;-79
2023/03/13 00:03:19;;;;;;;23.75;11.75;;;;;;;;;;4994849;28;20050;-80
2023/03/13 00:06:05;;;;;;;34.33;16.52;;;;;;;;;;4994801;28;20046;-79
2023/03/13 00:08:50;;;;;;;35.05;16.63;;;;;;;;;;4994947;28;20042;-81
2023/03/13 00:11:36;;;;;;;33.97;17.10;;;;;;;;;;4994610;28;20054;-81
2023/03/13 00:14:21;;;;;;;37.67;18.70;;;;;;;;;;4994621;28;20076;-80
2023/03/13 00:17:07;;;;;;;39.10;20.67;;;;;;;;;;4994852;28;20043;-78
2023/03/13 00:19:54;;;;;;;26.75;15.27;;;;;;;;;;4979948;28;20042;-80
2023/03/13 00:22:39;;;;;;;46.35;19.60;;;;;;;;;;4979867;28;20062;-78
2023/03/13 00:25:24;;;;;;;48.35;19.33;;;;;;;;;;4995939;28;20050;-80
2023/03/13 00:28:09;;;;;;;35.40;15.43;;;;;;;;;;4996557;28;20046;-78
2023/03/13 00:31:02;;;;;;;51.10;20.30;;;;;;;;;;4996533;28;20488;-79
2023/03/13 00:33:50;;;;;;;48.65;18.80;;;;;;;;;;4996196;28;20035;-80
2023/03/13 00:36:36;;;;;;;51.33;20.67;;;;;;;;;;4988234;28;20042;-79
2023/03/13 00:39:21;;;;;;;49.38;19.25;;;;;;;;;;4996328;28;20046;-80
2023/03/13 00:42:09;;;;;;;40.83;17.40;;;;;;;;;;4995167;28;20046;-80
2023/03/13 00:44:55;;;;;;;34.72;14.80;;;;;;;;;;4982382;28;20408;-78
2023/03/13 00:47:42;;;;;;;46.35;19.02;;;;;;;;;;4980512;28;20061;-79
2023/03/13 00:50:28;;;;;;;51.25;18.88;;;;;;;;;;4995136;28;20408;-78
2023/03/13 00:53:14;;;;;;;59.38;18.73;;;;;;;;;;4995104;28;20042;-80
2023/03/13 00:56:02;;;;;;;36.00;14.80;;;;;;;;;;4994482;28;20046;-79
2023/03/13 00:58:49;;;;;;;42.53;16.52;;;;;;;;;;4986852;28;20046;-79
2023/03/13 01:01:35;;;;;;;44.97;18.42;;;;;;;;;;4994770;28;20054;-79
2023/03/13 01:04:21;;;;;;;49.58;20.90;;;;;;;;;;4986461;28;20070;-80
2023/03/13 01:07:09;;;;;;;58.67;21.17;;;;;;;;;;4994756;28;20047;-81
2023/03/13 01:09:54;;;;;;;62.22;22.40;;;;;;;;;;4986314;28;20050;-80
2023/03/13 01:12:40;;;;;;;49.75;20.67;;;;;;;;;;4994683;28;20058;-79
2023/03/13 01:15:27;;;;;;;41.80;17.42;;;;;;;;;;4994445;28;20042;-79
2023/03/13 01:18:14;;;;;;;32.28;15.38;;;;;;;;;;4994373;28;20046;-79
2023/03/13 01:21:00;;;;;;;35.67;16.58;;;;;;;;;;4994559;28;20071;-79
2023/03/13 01:23:46;;;;;;;31.73;13.98;;;;;;;;;;4993775;28;20050;-79
2023/03/13 01:26:32;;;;;;;36.53;16.70;;;;;;;;;;4994403;28;20058;-80
2023/03/13 01:29:17;;;;;;;51.33;20.60;;;;;;;;;;4986077;28;20484;-81
2023/03/13 01:32:03;;;;;;;48.05;22.90;;;;;;;;;;4985970;28;20054;-80
2023/03/13 01:34:48;;;;;;;45.67;20.63;;;;;;;;;;4994217;28;20042;-80
2023/03/13 01:37:33;;;;;;;49.55;21.17;;;;;;;;;;4984828;28;20042;-79
2023/03/13 01:40:18;;;;;;;90.60;33.38;;;;;;;;;;4979357;28;20038;-81
2023/03/13 01:43:17;;;;;;;52.92;19.88;;;;;;;;;;4994035;28;20046;-81
2023/03/13 01:46:18;;;;;;;45.10;19.80;;;;;;;;;;4985615;28;20046;-79
2023/03/13 01:49:43;;;;;;;42.67;20.38;;;;;;;;;;4979579;28;20088;-81
2023/03/13 01:52:49;;;;;;;68.20;26.33;;;;;;;;;;4985780;28;20050;-81
2023/03/13 01:55:39;;;;;;;62.20;23.30;;;;;;;;;;4985464;28;20488;-80
2023/03/13 01:58:25;;;;;;;47.70;18.48;;;;;;;;;;4993591;28;20046;-79
2023/03/13 02:01:11;;;;;;;71.72;30.42;;;;;;;;;;4985545;28;20054;-79
2023/03/13 02:03:57;;;;;;;167.05;67.20;;;;;;;;;;4993557;28;20054;-81
2023/03/13 02:06:47;;;;;;;152.68;60.30;;;;;;;;;;4993779;28;20480;-78
2023/03/13 02:09:34;;;;;;;132.85;56.25;;;;;;;;;;4993819;28;20046;-80
2023/03/13 02:12:41;;;;;;;126.63;49.67;;;;;;;;;;4993437;28;20050;-80
2023/03/13 02:15:27;;;;;;;101.63;41.72;;;;;;;;;;4992710;28;20050;-78
2023/03/13 02:18:14;;;;;;;95.57;39.50;;;;;;;;;;4984961;28;20038;-78
2023/03/13 02:21:11;;;;;;;86.22;37.25;;;;;;;;;;4985200;28;20046;-80
2023/03/13 02:24:31;;;;;;;80.22;34.97;;;;;;;;;;4985178;28;20034;-79
2023/03/13 02:27:17;;;;;;;75.15;32.60;;;;;;;;;;4985073;28;20521;-80
2023/03/13 02:30:05;;;;;;;89.00;35.85;;;;;;;;;;4984811;28;20038;-80
2023/03/13 02:32:51;;;;;;;97.07;40.28;;;;;;;;;;4993194;28;20046;-80
2023/03/13 02:35:36;;;;;;;110.88;45.97;;;;;;;;;;4984815;28;20038;-80
2023/03/13 02:38:28;;;;;;;123.72;52.30;;;;;;;;;;4984550;28;20480;-78
2023/03/13 02:41:14;;;;;;;129.82;51.00;;;;;;;;;;4984888;28;20042;-82
2023/03/13 02:44:00;;;;;;;92.05;36.80;;;;;;;;;;4982990;28;20043;-80
2023/03/13 02:46:49;;;;;;;76.50;33.75;;;;;;;;;;4984742;28;20485;-80
2023/03/13 02:49:35;;;;;;;78.32;35.75;;;;;;;;;;4984752;28;20038;-80
2023/03/13 02:52:25;;;;;;;41.45;17.95;;;;;;;;;;4983710;28;20046;-79
2023/03/13 02:55:22;;;;;;;24.75;11.73;;;;;;;;;;4984410;28;20564;-78
2023/03/13 02:58:07;;;;;;;24.95;11.80;;;;;;;;;;4984443;28;20046;-79
2023/03/13 03:00:54;;;;;;;18.75;9.52;;;;;;;;;;4984483;28;20046;-79
2023/03/13 03:03:40;;;;;;;18.85;8.70;;;;;;;;;;4983862;28;20050;-78
2023/03/13 03:06:25;;;;;;;35.28;13.93;;;;;;;;;;4992397;28;20047;-78
2023/03/13 03:09:11;;;;;;;35.33;16.20;;;;;;;;;;4984664;28;20050;-78
2023/03/13 03:11:57;;;;;;;32.67;12.20;;;;;;;;;;4992707;28;20046;-79
2023/03/13 03:14:44;;;;;;;25.92;11.98;;;;;;;;;;4984300;28;20042;-80
2023/03/13 03:17:30;;;;;;;23.45;11.35;;;;;;;;;;4984472;28;20055;-80
2023/03/13 03:20:15;;;;;;;26.90;12.20;;;;;;;;;;4992034;28;20034;-78
2023/03/13 03:23:02;;;;;;;30.77;12.90;;;;;;;;;;4984517;28;20046;-81
2023/03/13 03:25:48;;;;;;;37.60;14.70;;;;;;;;;;4984425;28;20050;-79
2023/03/13 03:28:33;;;;;;;33.17;14.50;;;;;;;;;;4992326;28;20038;-78
2023/03/13 03:31:22;;;;;;;29.75;12.63;;;;;;;;;;4983891;28;20054;-79
2023/03/13 03:34:07;;;;;;;22.48;11.75;;;;;;;;;;4984090;28;20042;-78
2023/03/13 03:36:53;;;;;;;32.13;14.77;;;;;;;;;;4984323;28;20047;-79
2023/03/13 03:39:39;;;;;;;31.60;14.55;;;;;;;;;;4984381;28;20039;-79
2023/03/13 03:42:24;;;;;;;38.15;16.77;;;;;;;;;;4983685;28;20049;-78
2023/03/13 03:45:10;;;;;;;23.20;12.90;;;;;;;;;;4979436;28;20062;-79
2023/03/13 03:47:58;;;;;;;19.83;11.15;;;;;;;;;;4992442;28;20042;-78
2023/03/13 03:50:44;;;;;;;19.25;10.45;;;;;;;;;;4984208;28;20054;-79
2023/03/13 03:53:31;;;;;;;23.60;10.80;;;;;;;;;;4984159;28;20046;-78
2023/03/13 03:56:16;;;;;;;35.85;18.50;;;;;;;;;;4983222;28;20046;-79
2023/03/13 03:59:06;;;;;;;25.83;10.52;;;;;;;;;;4983839;28;20050;-78
2023/03/13 04:01:58;;;;;;;25.98;11.52;;;;;;;;;;4983934;28;20043;-77
2023/03/13 04:04:45;;;;;;;26.08;12.00;;;;;;;;;;4970466;28;20050;-78
2023/03/13 04:07:41;;;;;;;21.98;10.82;;;;;;;;;;4984166;28;20050;-77
2023/03/13 04:10:26;;;;;;;19.08;9.93;;;;;;;;;;4991230;28;20050;-78
2023/03/13 04:13:12;;;;;;;23.75;11.48;;;;;;;;;;4984215;28;20042;-79
2023/03/13 04:15:58;;;;;;;27.42;12.90;;;;;;;;;;4987378;28;20054;-78
2023/03/13 04:18:43;;;;;;;27.42;11.88;;;;;;;;;;4987329;28;20038;-77
2023/03/13 04:21:29;;;;;;;34.65;14.23;;;;;;;;;;4987409;28;20054;-78
2023/03/13 04:24:31;;;;;;;49.75;21.70;;;;;;;;;;4987113;28;20508;-79
2023/03/13 04:27:16;;;;;;;49.88;23.30;;;;;;;;;;4987162;28;20042;-78
2023/03/13 04:30:05;;;;;;;40.42;18.02;;;;;;;;;;4987288;28;20046;-79
2023/03/13 04:33:23;;;;;;;39.22;17.00;;;;;;;;;;4987174;28;20038;-78
2023/03/13 04:36:27;;;;;;;43.60;20.35;;;;;;;;;;4994977;28;20500;-78
2023/03/13 04:39:27;;;;;;;30.40;15.00;;;;;;;;;;4995008;28;20058;-78
2023/03/13 04:42:13;;;;;;;43.42;18.92;;;;;;;;;;4994926;28;20042;-79
2023/03/13 04:45:25;;;;;;;32.88;16.38;;;;;;;;;;4979256;28;20492;-79
2023/03/13 04:48:36;;;;;;;35.28;16.90;;;;;;;;;;4979955;28;20042;-78
2023/03/13 04:51:40;;;;;;;36.13;17.67;;;;;;;;;;4986945;28;20054;-78
2023/03/13 04:54:43;;;;;;;34.13;15.95;;;;;;;;;;4986085;28;20042;-78
2023/03/13 04:57:49;;;;;;;29.65;14.10;;;;;;;;;;4988569;28;20058;-78
2023/03/13 05:00:58;;;;;;;28.35;14.60;;;;;;;;;;4986098;28;20047;-78
2023/03/13 05:04:06;;;;;;;35.78;14.00;;;;;;;;;;4974349;28;20042;-79
2023/03/13 05:07:02;;;;;;;33.03;15.27;;;;;;;;;;4986667;28;20050;-79
2023/03/13 05:10:02;;;;;;;36.92;17.30;;;;;;;;;;4988535;28;20050;-79
2023/03/13 05:13:25;;;;;;;42.25;16.33;;;;;;;;;;4990080;28;20039;-80
2023/03/13 05:16:11;;;;;;;46.38;21.92;;;;;;;;;;4996418;28;20050;-80
2023/03/13 05:19:25;;;;;;;40.53;18.55;;;;;;;;;;4937414;28;20050;-79
2023/03/13 05:22:29;;;;;;;42.85;19.00;;;;;;;;;;4998503;28;20042;-80
2023/03/13 05:25:33;;;;;;;35.80;15.50;;;;;;;;;;4986462;28;20054;-80
2023/03/13 05:28:20;;;;;;;43.25;19.15;;;;;;;;;;4994060;28;20059;-79
2023/03/13 05:31:06;;;;;;;54.05;25.30;;;;;;;;;;4994481;28;20038;-80
2023/03/13 05:34:11;;;;;;;41.90;19.27;;;;;;;;;;5000901;28;20050;-80
2023/03/13 05:37:11;;;;;;;37.90;18.52;;;;;;;;;;4986092;28;20046;-79
2023/03/13 05:40:02;;;;;;;43.47;20.27;;;;;;;;;;4993957;28;20408;-81
2023/03/13 05:43:14;;;;;;;51.53;23.83;;;;;;;;;;4979207;28;20420;-80
2023/03/13 05:46:09;;;;;;;64.55;28.25;;;;;;;;;;4985907;28;20400;-81
2023/03/13 05:49:13;;;;;;;77.95;32.47;;;;;;;;;;4974798;28;20388;-81
2023/03/13 05:52:17;;;;;;;50.58;27.52;;;;;;;;;;5000273;28;20038;-79
2023/03/13 05:55:12;;;;;;;57.30;25.33;;;;;;;;;;4993249;28;20039;-79
2023/03/13 05:58:16;;;;;;;45.53;24.30;;;;;;;;;;4993025;28;20046;-79
2023/03/13 06:01:11;;;;;;;41.75;21.60;;;;;;;;;;4985450;28;20058;-80
2023/03/13 06:04:02;;;;;;;47.35;21.95;;;;;;;;;;4993330;28;20038;-81
2023/03/13 06:06:49;;;;;;;48.40;23.23;;;;;;;;;;4985039;28;20062;-80
2023/03/13 06:09:36;;;;;;;48.85;23.58;;;;;;;;;;4985228;28;20575;-82
2023/03/13 06:12:21;;;;;;;50.63;24.95;;;;;;;;;;4985207;28;20038;-81
2023/03/13 06:15:08;;;;;;;65.10;28.50;;;;;;;;;;4992850;28;20041;-80
2023/03/13 06:18:14;;;;;;;62.70;28.02;;;;;;;;;;4985286;28;20400;-80
2023/03/13 06:21:00;;;;;;;46.17;23.92;;;;;;;;;;4993222;28;20050;-82
2023/03/13 06:23:46;;;;;;;55.78;25.08;;;;;;;;;;4993374;28;20576;-80
2023/03/13 06:26:32;;;;;;;39.80;21.38;;;;;;;;;;4993099;28;20042;-81
2023/03/13 06:29:17;;;;;;;38.83;19.98;;;;;;;;;;4992625;28;20042;-81
2023/03/13 06:32:03;;;;;;;37.30;20.10;;;;;;;;;;4993173;28;20035;-80
2023/03/13 06:34:48;;;;;;;39.55;20.00;;;;;;;;;;4992954;28;20051;-80
2023/03/13 06:37:34;;;;;;;57.35;28.13;;;;;;;;;;4992630;28;20046;-79
2023/03/13 06:40:19;;;;;;;48.38;25.67;;;;;;;;;;4991823;28;20046;-80
2023/03/13 06:43:04;;;;;;;73.45;33.60;;;;;;;;;;4992341;28;20050;-79
2023/03/13 06:45:49;;;;;;;38.85;20.00;;;;;;;;;;4991364;28;20050;-80
2023/03/13 06:48:34;;;;;;;33.90;15.75;;;;;;;;;;4992798;28;20046;-81
2023/03/13 06:51:21;;;;;;;30.08;15.88;;;;;;;;;;4993077;28;20046;-81
2023/03/13 06:54:06;;;;;;;34.47;15.30;;;;;;;;;;4992885;28;20050;-79
2023/03/13 06:56:51;;;;;;;29.48;15.32;;;;;;;;;;4990414;28;20050;-80
2023/03/13 06:59:38;;;;;;;25.05;14.73;;;;;;;;;;4990922;28;20050;-82
2023/03/13 07:02:23;;;;;;;29.15;15.63;;;;;;;;;;4991301;28;20420;-80
2023/03/13 07:05:09;;;;;;;30.48;15.57;;;;;;;;;;4990872;28;20042;-82
2023/03/13 07:07:55;;;;;;;25.55;14.57;;;;;;;;;;4990838;28;20392;-82
2023/03/13 07:10:42;;;;;;;34.00;17.55;;;;;;;;;;4990855;28;20046;-82
2023/03/13 07:13:28;;;;;;;31.92;17.45;;;;;;;;;;4976314;28;20058;-82
2023/03/13 07:16:13;;;;;;;40.47;21.23;;;;;;;;;;4989843;28;20054;-81
2023/03/13 07:19:02;;;;;;;36.95;19.55;;;;;;;;;;4980865;28;20050;-81
2023/03/13 07:21:48;;;;;;;51.15;22.25;;;;;;;;;;4990986;28;20483;-82
2023/03/13 07:24:34;;;;;;;40.38;19.30;;;;;;;;;;4990855;28;20408;-82
2023/03/13 07:27:20;;;;;;;30.33;16.25;;;;;;;;;;4990392;28;20042;-80
2023/03/13 07:30:06;;;;;;;35.08;19.67;;;;;;;;;;4982621;28;20054;-80
2023/03/13 07:32:52;;;;;;;55.28;25.73;;;;;;;;;;4990539;28;20050;-84
2023/03/13 07:35:38;;;;;;;45.80;21.73;;;;;;;;;;4990471;28;20412;-80
2023/03/13 07:38:22;;;;;;;48.20;23.20;;;;;;;;;;4990531;28;20061;-80
2023/03/13 07:41:11;;;;;;;115.00;50.85;;;;;;;;;;4990785;28;20038;-81
2023/03/13 07:43:57;;;;;;;26.75;13.68;;;;;;;;;;4982648;28;20050;-84
2023/03/13 07:46:42;;;;;;;28.88;16.92;;;;;;;;;;4992126;28;20046;-81
2023/03/13 07:49:28;;;;;;;37.85;19.63;;;;;;;;;;4994583;28;20046;-82
2023/03/13 07:52:13;;;;;;;35.83;20.45;;;;;;;;;;4981117;28;20046;-82
2023/03/13 07:54:59;;;;;;;20.45;9.52;;;;;;;;;;4996080;28;20046;-80
2023/03/13 07:57:45;;;;;;;24.13;12.48;;;;;;;;;;4995693;28;20571;-80
2023/03/13 08:00:30;;;;;;;17.23;10.63;;;;;;;;;;4995451;28;20054;-80
2023/03/13 08:03:15;;;;;;;22.70;11.02;;;;;;;;;;4995879;28;20042;-81
2023/03/13 08:06:07;;;;;;;21.60;10.57;;;;;;;;;;4995470;28;20050;-81
2023/03/13 08:08:56;;;;;;;14.30;9.27;;;;;;;;;;4995228;28;20046;-81
2023/03/13 08:11:43;;;;;;;23.63;12.52;;;;;;;;;;4995407;28;20046;-80
2023/03/13 08:14:28;;;;;;;21.77;11.93;;;;;;;;;;4995276;28;20042;-81
2023/03/13 08:17:14;;;;;;;22.48;12.55;;;;;;;;;;4995072;28;20054;-81
2023/03/13 08:19:59;;;;;;;29.08;15.13;;;;;;;;;;4995303;28;20035;-81
2023/03/13 08:22:49;;;;;;;17.88;10.38;;;;;;;;;;4987002;28;20050;-80
2023/03/13 08:25:34;;;;;;;19.55;12.15;;;;;;;;;;4980578;28;20404;-81
2023/03/13 08:28:19;;;;;;;20.67;12.18;;;;;;;;;;4995300;28;20046;-82
2023/03/13 08:31:14;;;;;;;20.98;12.82;;;;;;;;;;4995261;28;20046;-79
2023/03/13 08:34:00;;;;;;;25.63;15.98;;;;;;;;;;4995031;28;20483;-79
2023/03/13 08:36:45;;;;;;;21.25;12.88;;;;;;;;;;4994669;28;20051;-79
2023/03/13 08:39:31;;;;;;;25.83;15.48;;;;;;;;;;4995130;28;20480;-79
2023/03/13 08:42:16;;;;;;;24.83;15.18;;;;;;;;;;4994823;28;20050;-82
2023/03/13 08:45:01;;;;;;;26.42;14.70;;;;;;;;;;4992958;28;20054;-82
2023/03/13 08:47:52;;;;;;;27.65;16.30;;;;;;;;;;4992508;28;20058;-80
2023/03/13 08:50:37;;;;;;;27.35;16.85;;;;;;;;;;4992938;28;20066;-80
2023/03/13 08:53:23;;;;;;;28.20;15.55;;;;;;;;;;4993386;28;20038;-80
2023/03/13 08:56:11;;;;;;;23.58;13.45;;;;;;;;;;4993322;28;20400;-82
2023/03/13 08:59:00;;;;;;;23.70;14.60;;;;;;;;;;4993088;28;20396;-81
2023/03/13 09:01:45;;;;;;;26.05;13.95;;;;;;;;;;4992271;28;20042;-80
2023/03/13 09:04:30;;;;;;;22.05;13.65;;;;;;;;;;4993246;28;20050;-81
2023/03/13 09:07:16;;;;;;;25.88;15.90;;;;;;;;;;4992874;28;20484;-83
2023/03/13 09:10:01;;;;;;;26.13;13.65;;;;;;;;;;4994542;28;20050;-80
2023/03/13 09:12:47;;;;;;;24.33;14.52;;;;;;;;;;4993271;28;20051;-81
2023/03/13 09:15:32;;;;;;;18.63;11.30;;;;;;;;;;4992784;28;20400;-80
2023/03/13 09:18:18;;;;;;;20.40;13.05;;;;;;;;;;4984718;28;20058;-81
2023/03/13 09:21:07;;;;;;;22.98;13.40;;;;;;;;;;4978432;28;20480;-81
2023/03/13 09:23:53;;;;;;;19.65;12.25;;;;;;;;;;4984430;28;20047;-82
2023/03/13 09:26:38;;;;;;;21.20;12.23;;;;;;;;;;4992695;28;20058;-80
2023/03/13 09:29:24;;;;;;;26.77;14.18;;;;;;;;;;4984277;28;20046;-81
2023/03/13 09:32:10;;;;;;;23.75;11.55;;;;;;;;;;4985206;28;20043;-81
2023/03/13 09:34:55;;;;;;;26.10;11.02;;;;;;;;;;4981390;28;20043;-79
2023/03/13 09:37:40;;;;;;;30.50;17.27;;;;;;;;;;4994751;28;20492;-88
2023/03/13 09:40:27;;;;;;;17.23;10.60;;;;;;;;;;4981295;28;20043;-83
2023/03/13 09:43:41;;;;;;;10.65;5.97;;;;;;;;;;4995553;28;20042;-82
2023/03/13 09:46:58;;;;;;;13.15;6.63;;;;;;;;;;4996547;28;20042;-82
2023/03/13 09:50:04;;;;;;;11.77;6.35;;;;;;;;;;5003062;28;20163;-82
2023/03/13 09:52:54;;;;;;;10.70;5.85;;;;;;;;;;4995819;28;20054;-80
2023/03/13 09:55:43;;;;;;;6.50;4.25;;;;;;;;;;4995883;28;20046;-80
2023/03/13 09:58:29;;;;;;;8.25;4.60;;;;;;;;;;4997682;28;20047;-80
2023/03/13 10:01:21;;;;;;;5.05;3.25;;;;;;;;;;4996292;28;20050;-80
2023/03/13 10:04:23;;;;;;;7.13;4.55;;;;;;;;;;4995395;28;20046;-79
2023/03/13 10:07:10;;;;;;;9.13;5.10;;;;;;;;;;4995846;28;20038;-80
2023/03/13 10:09:55;;;;;;;8.20;5.63;;;;;;;;;;4996078;28;20046;-79
2023/03/13 10:12:45;;;;;;;4.93;3.22;;;;;;;;;;4994876;28;20042;-78
2023/03/13 10:15:35;;;;;;;6.53;3.85;;;;;;;;;;4980791;28;20492;-80
2023/03/13 10:18:23;;;;;;;5.22;3.22;;;;;;;;;;4994933;28;20413;-82
2023/03/13 10:21:19;;;;;;;5.82;3.85;;;;;;;;;;4979907;28;20046;-80
2023/03/13 10:24:31;;;;;;;6.85;3.92;;;;;;;;;;5000215;28;20050;-80
2023/03/13 10:27:17;;;;;;;6.22;3.53;;;;;;;;;;5000080;28;20485;-80
2023/03/13 10:30:02;;;;;;;8.20;4.28;;;;;;;;;;4994872;28;20046;-81
2023/03/13 10:32:48;;;;;;;6.07;3.63;;;;;;;;;;4981611;28;20050;-81
2023/03/13 10:35:39;;;;;;;4.30;2.97;;;;;;;;;;4995424;28;20050;-82
2023/03/13 10:38:24;;;;;;;5.00;3.53;;;;;;;;;;4998416;28;20051;-81
2023/03/13 10:41:37;;;;;;;8.32;3.97;;;;;;;;;;5002745;28;20046;-81
2023/03/13 10:44:28;;;;;;;23.52;13.65;;;;;;;;;;4984520;28;20042;-79
2023/03/13 10:47:18;;;;;;;22.23;11.73;;;;;;;;;;4981051;28;20046;-81
2023/03/13 10:50:03;;;;;;;22.50;13.32;;;;;;;;;;4988050;28;20042;-80
2023/03/13 10:52:49;;;;;;;8.80;4.55;;;;;;;;;;4994893;28;20047;-81
2023/03/13 10:55:43;;;;;;;5.97;3.65;;;;;;;;;;4993548;28;20050;-84
2023/03/13 10:58:54;;;;;;;13.07;6.50;;;;;;;;;;4994276;28;20046;-77
2023/03/13 11:01:41;;;;;;;8.15;4.78;;;;;;;;;;5000452;28;20054;-77
2023/03/13 11:04:36;;;;;;;7.95;3.83;;;;;;;;;;4994076;28;20042;-78
2023/03/13 11:07:32;;;;;;;6.68;3.30;;;;;;;;;;4980046;28;20047;-77
2023/03/13 11:10:19;;;;;;;8.40;3.92;;;;;;;;;;4993977;28;20492;-78
2023/03/13 11:13:04;;;;;;;6.85;3.97;;;;;;;;;;4986431;28;20038;-79
2023/03/13 11:15:56;;;;;;;9.65;5.05;;;;;;;;;;4993996;28;20058;-77
2023/03/13 11:18:40;;;;;;;8.02;5.03;;;;;;;;;;4986299;28;20488;-80
2023/03/13 11:21:59;;;;;;;9.93;4.82;;;;;;;;;;4986053;28;20043;-78
2023/03/13 11:24:49;;;;;;;7.57;4.57;;;;;;;;;;4996670;28;20046;-79
2023/03/13 11:27:34;;;;;;;15.23;6.55;;;;;;;;;;4998470;28;20507;-76
2023/03/13 11:31:02;;;;;;;8.52;4.25;;;;;;;;;;4998101;28;20050;-77
2023/03/13 11:33:56;;;;;;;8.65;5.05;;;;;;;;;;4900388;29;20053;-80
2023/03/13 11:37:10;;;;;;;9.30;5.40;;;;;;;;;;4997741;28;20042;-80
2023/03/13 11:40:23;;;;;;;9.30;5.35;;;;;;;;;;4997860;28;20062;-77
2023/03/13 11:43:12;;;;;;;8.65;5.68;;;;;;;;;;5004460;28;20414;-78
2023/03/13 11:46:01;;;;;;;9.35;5.43;;;;;;;;;;4998102;28;20050;-78
2023/03/13 11:48:58;;;;;;;7.47;4.65;;;;;;;;;;4997447;28;20038;-79
2023/03/13 11:52:15;;;;;;;7.90;4.72;;;;;;;;;;4997767;28;20042;-79
2023/03/13 11:55:06;;;;;;;8.35;4.80;;;;;;;;;;4998154;28;20046;-79
2023/03/13 11:58:13;;;;;;;8.25;5.15;;;;;;;;;;4997315;28;20046;-79
2023/03/13 12:01:07;;;;;;;8.82;5.00;;;;;;;;;;4997883;28;20054;-77
2023/03/13 12:03:59;;;;;;;8.05;4.90;;;;;;;;;;4997570;28;20493;-77
2023/03/13 12:07:02;;;;;;;6.82;4.40;;;;;;;;;;4997451;28;20054;-78
2023/03/13 12:10:23;;;;;;;11.60;6.15;;;;;;;;;;4989630;28;20046;-74
2023/03/13 12:13:18;;;;;;;8.68;4.70;;;;;;;;;;4958979;28;20497;-78
2023/03/13 12:16:11;;;;;;;6.68;3.95;;;;;;;;;;4997153;28;20047;-77
2023/03/13 12:18:56;;;;;;;6.60;4.55;;;;;;;;;;5003851;28;20046;-79
2023/03/13 12:21:49;;;;;;;6.35;4.32;;;;;;;;;;4997461;28;20054;-79
2023/03/13 12:24:39;;;;;;;9.30;5.47;;;;;;;;;;4997399;28;20050;-79
2023/03/13 12:27:34;;;;;;;10.35;4.90;;;;;;;;;;4997257;28;20058;-78
2023/03/13 12:30:47;;;;;;;7.03;4.35;;;;;;;;;;4997157;28;20513;-77
2023/03/13 12:33:55;;;;;;;7.72;4.25;;;;;;;;;;4996751;28;20492;-79
2023/03/13 12:36:53;;;;;;;6.72;4.18;;;;;;;;;;4996938;28;20042;-79
2023/03/13 12:39:46;;;;;;;15.63;9.07;;;;;;;;;;4995819;28;20416;-80
2023/03/13 12:42:54;;;;;;;8.35;4.95;;;;;;;;;;4996751;28;20046;-83
2023/03/13 12:46:19;;;;;;;11.80;6.78;;;;;;;;;;4996477;28;20054;-83
2023/03/13 12:49:14;;;;;;;9.23;5.10;;;;;;;;;;4931218;28;20050;-80
2023/03/13 12:52:07;;;;;;;7.70;5.40;;;;;;;;;;4996649;28;20042;-80
2023/03/13 12:55:01;;;;;;;7.95;4.32;;;;;;;;;;4996440;28;20046;-83
2023/03/13 12:58:33;;;;;;;7.30;4.75;;;;;;;;;;4988413;28;20046;-84
2023/03/13 13:01:29;;;;;;;8.15;5.25;;;;;;;;;;4973100;28;20042;-80
2023/03/13 13:04:21;;;;;;;18.35;9.85;;;;;;;;;;4996030;28;20480;-80
2023/03/13 13:07:25;;;;;;;6.03;4.07;;;;;;;;;;4996577;28;20046;-81
2023/03/13 13:10:19;;;;;;;7.65;4.32;;;;;;;;;;4996276;28;20050;-78
2023/03/13 13:13:13;;;;;;;8.68;4.50;;;;;;;;;;4995405;28;20400;-81
2023/03/13 13:16:03;;;;;;;8.10;4.50;;;;;;;;;;4996290;28;20046;-80
2023/03/13 13:18:49;;;;;;;8.63;5.45;;;;;;;;;;4996162;28;20046;-80
2023/03/13 13:21:36;;;;;;;8.77;3.92;;;;;;;;;;4995984;28;20054;-78
2023/03/13 13:24:47;;;;;;;7.95;4.45;;;;;;;;;;4987633;28;20050;-81
2023/03/13 13:27:33;;;;;;;7.65;3.67;;;;;;;;;;4995795;28;20046;-82
2023/03/13 13:30:18;;;;;;;6.53;4.13;;;;;;;;;;4996173;28;20038;-79
2023/03/13 13:33:20;;;;;;;5.55;3.05;;;;;;;;;;4996440;28;20046;-83
2023/03/13 13:36:08;;;;;;;7.72;3.90;;;;;;;;;;4996023;28;20042;-81
2023/03/13 13:38:55;;;;;;;5.32;3.67;;;;;;;;;;4995008;28;20047;-78
2023/03/13 13:41:40;;;;;;;7.03;4.28;;;;;;;;;;4995664;28;20046;-83
2023/03/13 13:44:28;;;;;;;5.28;3.50;;;;;;;;;;4995232;28;20051;-82
2023/03/13 13:47:25;;;;;;;5.95;3.70;;;;;;;;;;4994843;28;20046;-79
2023/03/13 13:50:27;;;;;;;7.25;3.90;;;;;;;;;;4995515;28;20404;-83
2023/03/13 13:53:32;;;;;;;7.97;4.72;;;;;;;;;;4995427;28;20047;-83
2023/03/13 13:56:41;;;;;;;10.05;4.45;;;;;;;;;;4995368;28;20408;-83
2023/03/13 13:59:35;;;;;;;6.90;4.30;;;;;;;;;;4980936;28;20046;-79
2023/03/13 14:02:42;;;;;;;8.15;4.32;;;;;;;;;;4995388;28;20054;-83
2023/03/13 14:05:31;;;;;;;6.70;4.00;;;;;;;;;;4991063;28;20058;-79
2023/03/13 14:08:21;;;;;;;7.70;4.25;;;;;;;;;;4995331;28;20043;-79
2023/03/13 14:11:18;;;;;;;7.68;3.83;;;;;;;;;;4994954;28;20054;-79
2023/03/13 14:14:09;;;;;;;5.53;3.28;;;;;;;;;;4994137;28;20050;-79
2023/03/13 14:16:56;;;;;;;7.13;3.92;;;;;;;;;;4994756;28;20039;-83
2023/03/13 14:19:42;;;;;;;7.50;4.00;;;;;;;;;;4994806;28;20484;-81
2023/03/13 14:22:46;;;;;;;8.05;4.20;;;;;;;;;;4994874;28;20043;-82
2023/03/13 14:25:47;;;;;;;9.60;5.07;;;;;;;;;;4994757;28;20035;-82
2023/03/13 14:28:32;;;;;;;8.15;5.45;;;;;;;;;;4994654;28;20058;-80
2023/03/13 14:31:27;;;;;;;12.98;7.22;;;;;;;;;;4994857;28;20397;-80
2023/03/13 14:34:12;;;;;;;84.22;44.50;;;;;;;;;;4995012;28;20050;-79
2023/03/13 14:36:59;;;;;;;14.00;9.73;;;;;;;;;;4994778;28;20043;-80
2023/03/13 14:39:47;;;;;;;19.02;8.48;;;;;;;;;;4994350;28;20050;-81
2023/03/13 14:42:39;;;;;;;151.40;82.18;;;;;;;;;;4994732;28;20046;-79
2023/03/13 14:45:35;;;;;;;21.00;14.65;;;;;;;;;;4993916;28;20050;-81
2023/03/13 14:48:32;;;;;;;13.32;8.77;;;;;;;;;;4993952;28;20489;-83
2023/03/13 14:51:24;;;;;;;14.02;8.95;;;;;;;;;;4994585;28;20046;-80
2023/03/13 14:54:28;;;;;;;9.27;5.25;;;;;;;;;;4994639;28;20046;-79
2023/03/13 14:57:20;;;;;;;6.85;4.57;;;;;;;;;;4994470;28;20400;-79
2023/03/13 15:00:42;;;;;;;10.07;4.40;;;;;;;;;;4994134;28;20039;-82
2023/03/13 15:03:30;;;;;;;7.03;4.13;;;;;;;;;;4897048;29;20056;-81
2023/03/13 15:06:18;;;;;;;6.97;4.35;;;;;;;;;;4994194;28;20046;-79
2023/03/13 15:09:15;;;;;;;7.82;4.47;;;;;;;;;;4994551;28;20042;-84
2023/03/13 15:12:01;;;;;;;6.78;3.83;;;;;;;;;;4993626;28;20058;-84
2023/03/13 15:14:48;;;;;;;10.82;4.35;;;;;;;;;;4993740;28;20058;-84
2023/03/13 15:17:34;;;;;;;15.95;4.40;;;;;;;;;;4993821;28;20038;-82
2023/03/13 15:20:21;;;;;;;4.85;3.20;;;;;;;;;;4993382;28;20050;-84
2023/03/13 15:23:12;;;;;;;10.60;5.50;;;;;;;;;;4979072;28;20400;-84
2023/03/13 15:25:57;;;;;;;9.32;5.97;;;;;;;;;;4993906;28;20082;-80
2023/03/13 15:28:43;;;;;;;11.38;7.20;;;;;;;;;;4993215;28;20050;-80
2023/03/13 15:31:29;;;;;;;13.30;6.07;;;;;;;;;;4993313;28;20042;-80
2023/03/13 15:34:15;;;;;;;9.45;4.97;;;;;;;;;;4993838;28;20392;-83
2023/03/13 15:37:00;;;;;;;15.73;8.35;;;;;;;;;;4993359;28;20046;-84
2023/03/13 15:39:45;;;;;;;10.80;6.78;;;;;;;;;;4993735;28;20046;-84
2023/03/13 15:42:31;;;;;;;13.70;7.30;;;;;;;;;;4993800;28;20050;-84
2023/03/13 15:45:16;;;;;;;13.20;7.32;;;;;;;;;;4993912;28;20046;-80
2023/03/13 15:48:11;;;;;;;13.85;5.82;;;;;;;;;;4993572;28;20050;-80
2023/03/13 15:51:02;;;;;;;13.07;6.97;;;;;;;;;;4994304;28;20050;-79
2023/03/13 15:53:47;;;;;;;15.65;9.00;;;;;;;;;;4994154;28;20050;-79
2023/03/13 15:56:35;;;;;;;44.25;25.33;;;;;;;;;;4993811;28;20039;-79
2023/03/13 15:59:20;;;;;;;18.58;11.30;;;;;;;;;;4992205;28;20050;-82
2023/03/13 16:02:18;;;;;;;22.63;13.27;;;;;;;;;;4992219;28;20512;-84
2023/03/13 16:05:04;;;;;;;39.40;29.88;;;;;;;;;;5065604;23;20045;-79
2023/03/13 16:07:49;;;;;;;28.23;17.33;;;;;;;;;;5013067;28;20054;-79
2023/03/13 16:10:35;;;;;;;27.10;17.42;;;;;;;;;;5015665;28;20045;-79
2023/03/13 16:13:21;;;;;;;18.13;9.00;;;;;;;;;;5016708;28;20043;-80
2023/03/13 16:16:32;;;;;;;15.65;8.65;;;;;;;;;;5016381;28;20041;-80
2023/03/13 16:19:16;;;;;;;12.60;6.50;;;;;;;;;;5016528;28;20042;-79
2023/03/13 16:22:01;;;;;;;11.90;7.22;;;;;;;;;;5016507;28;20390;-77
2023/03/13 16:24:47;;;;;;;16.15;8.18;;;;;;;;;;5014426;28;20046;-78
2023/03/13 16:27:32;;;;;;;14.88;8.65;;;;;;;;;;5013232;28;20487;-79
2023/03/13 16:30:24;;;;;;;20.83;7.15;;;;;;;;;;4995919;28;20046;-79
2023/03/13 16:33:10;;;;;;;15.27;8.90;;;;;;;;;;5010321;28;20403;-78
2023/03/13 16:35:55;;;;;;;21.23;11.38;;;;;;;;;;4997382;28;20046;-80
2023/03/13 16:38:40;;;;;;;20.73;10.60;;;;;;;;;;5011880;28;20479;-80
2023/03/13 16:41:27;;;;;;;12.23;7.07;;;;;;;;;;5010430;28;20049;-80
2023/03/13 16:44:13;;;;;;;19.35;9.77;;;;;;;;;;5009816;28;20215;-79
2023/03/13 16:46:58;;;;;;;18.10;9.18;;;;;;;;;;5016433;28;20046;-79